createdAt,value
2022-12-11T00:00:16.580Z,99857.98
2022-12-11T00:03:12.733Z,99855.86
2022-12-11T00:05:47.892Z,99856.33
2022-12-11T00:08:19.651Z,99852.46
2022-12-11T00:10:52.392Z,99851.20
2022-12-11T00:13:24.156Z,99852.44
2022-12-11T00:15:56.004Z,99848.94
2022-12-11T00:18:27.673Z,99846.44
2022-12-11T00:21:02.786Z,99842.65
2022-12-11T00:23:35.228Z,99829.41
2022-12-11T00:26:10.690Z,99835.52
2022-12-11T00:28:42.852Z,99831.55
2022-12-11T00:31:20.391Z,99834.22
2022-12-11T00:33:52.615Z,99830.65
2022-12-11T00:36:26.734Z,99827.73
2022-12-11T00:38:58.393Z,99824.52
2022-12-11T00:41:30.164Z,99820.51
2022-12-11T00:44:01.732Z,99823.63
2022-12-11T00:46:33.471Z,99825.33
2022-12-11T00:49:05.540Z,99827.98
2022-12-11T00:51:37.592Z,99830.91
2022-12-11T00:54:09.279Z,99830.04
2022-12-11T00:56:41.144Z,99831.19
2022-12-11T00:59:13.629Z,99826.75
2022-12-11T01:01:44.074Z,99825.45
2022-12-11T01:04:15.862Z,99824.16
2022-12-11T01:06:48.777Z,99823.73
2022-12-11T01:09:37.704Z,99825.50
2022-12-11T01:12:09.492Z,99829.80
2022-12-11T01:14:41.165Z,99828.52
2022-12-11T01:17:13.123Z,99827.55
2022-12-11T01:19:44.914Z,99831.30
2022-12-11T01:22:16.569Z,99827.65
2022-12-11T01:24:48.541Z,99829.61
2022-12-11T01:27:20.230Z,99828.90
2022-12-11T01:29:52.471Z,99826.83
2022-12-11T01:32:24.470Z,99830.74
2022-12-11T01:34:56.270Z,99825.59
2022-12-11T01:37:28.166Z,99833.04
2022-12-11T01:39:59.922Z,99830.10
2022-12-11T01:42:31.747Z,99824.66
2022-12-11T01:45:27.810Z,99820.77
2022-12-11T01:48:05.865Z,99821.55
2022-12-11T01:50:40.461Z,99823.08
2022-12-11T01:53:16.167Z,99819.49
2022-12-11T01:55:49.782Z,99816.30
2022-12-11T01:58:24.578Z,99817.90
2022-12-11T02:00:58.126Z,99820.33
2022-12-11T02:03:30.555Z,99822.16
2022-12-11T02:06:03.675Z,99827.88
2022-12-11T02:08:35.802Z,99830.86
2022-12-11T02:11:17.661Z,99822.23
2022-12-11T02:13:56.941Z,99817.55
2022-12-11T02:16:34.684Z,99813.65
2022-12-11T02:19:17.713Z,99812.02
2022-12-11T02:21:54.085Z,99812.59
2022-12-11T02:24:34.023Z,99811.23
2022-12-11T02:27:27.841Z,99809.85
2022-12-11T02:30:05.584Z,99806.79
2022-12-11T02:32:43.956Z,99811.29
2022-12-11T02:35:20.430Z,99809.78
2022-12-11T02:37:58.153Z,99807.98
2022-12-11T02:40:33.636Z,99804.10
2022-12-11T02:43:08.530Z,99802.40
2022-12-11T02:45:42.566Z,99799.63
2022-12-11T02:48:16.297Z,99797.41
2022-12-11T02:50:52.311Z,99794.51
2022-12-11T02:53:27.634Z,99792.77
2022-12-11T02:56:08.029Z,99796.40
2022-12-11T02:58:46.976Z,99795.38
2022-12-11T03:01:19.008Z,99796.92
2022-12-11T03:03:51.183Z,99797.14
2022-12-11T03:06:27.677Z,99799.40
2022-12-11T03:08:59.703Z,99809.02
2022-12-11T03:11:31.597Z,99805.23
2022-12-11T03:14:04.608Z,99801.23
2022-12-11T03:16:39.429Z,99796.77
2022-12-11T03:19:19.306Z,99805.90
2022-12-11T03:21:59.459Z,99805.85
2022-12-11T03:24:36.206Z,99806.42
2022-12-11T03:27:14.741Z,99806.58
2022-12-11T03:29:54.916Z,99805.98
2022-12-11T03:32:30.344Z,99805.14
2022-12-11T03:35:08.060Z,99810.59
2022-12-11T03:37:42.376Z,99814.39
2022-12-11T03:40:17.410Z,99819.38
2022-12-11T03:42:52.497Z,99814.98
2022-12-11T03:45:26.164Z,99814.60
2022-12-11T03:48:01.686Z,99809.25
2022-12-11T03:50:36.665Z,99803.48
2022-12-11T03:53:08.853Z,99801.31
2022-12-11T03:55:41.517Z,99800.05
2022-12-11T03:58:11.825Z,99805.77
2022-12-11T04:00:43.477Z,99806.56
2022-12-11T04:03:15.973Z,99797.98
2022-12-11T04:05:47.185Z,99796.00
2022-12-11T04:08:20.803Z,99793.20
2022-12-11T04:11:14.015Z,99795.48
2022-12-11T04:13:45.769Z,99801.66
2022-12-11T04:16:17.503Z,99801.10
2022-12-11T04:19:06.677Z,99802.73
2022-12-11T04:21:55.891Z,99803.45
2022-12-11T04:24:27.617Z,99796.20
2022-12-11T04:26:59.747Z,99797.89
2022-12-11T04:29:31.418Z,99793.61
2022-12-11T04:32:03.059Z,99789.09
2022-12-11T04:34:34.676Z,99792.66
2022-12-11T04:37:06.837Z,99786.09
2022-12-11T04:39:39.105Z,99786.15
2022-12-11T04:42:11.013Z,99780.47
2022-12-11T04:44:42.826Z,99776.23
2022-12-11T04:47:14.668Z,99772.13
2022-12-11T04:49:46.379Z,99772.35
2022-12-11T04:52:18.181Z,99764.36
2022-12-11T04:54:51.465Z,99756.45
2022-12-11T04:57:23.312Z,99763.18
2022-12-11T04:59:55.114Z,99759.37
2022-12-11T05:02:27.085Z,99753.96
2022-12-11T05:04:58.931Z,99754.20
2022-12-11T05:07:30.775Z,99756.05
2022-12-11T05:10:03.054Z,99747.10
2022-12-11T05:12:35.579Z,99744.12
2022-12-11T05:15:08.682Z,99742.48
2022-12-11T05:17:41.048Z,99743.37
2022-12-11T05:20:13.972Z,99742.66
2022-12-11T05:22:45.612Z,99743.33
2022-12-11T05:25:17.664Z,99726.89
2022-12-11T05:27:49.474Z,99728.36
2022-12-11T05:30:21.391Z,99722.84
2022-12-11T05:32:53.109Z,99718.33
2022-12-11T05:35:25.151Z,99716.05
2022-12-11T05:37:58.532Z,99717.20
2022-12-11T05:40:30.614Z,99713.48
2022-12-11T05:43:02.244Z,99714.67
2022-12-11T05:45:34.198Z,99724.05
2022-12-11T05:48:06.352Z,99724.05
2022-12-11T05:50:38.059Z,99721.02
2022-12-11T05:53:12.262Z,99723.43
2022-12-11T05:55:44.180Z,99724.03
2022-12-11T05:58:16.056Z,99725.17
2022-12-11T06:00:47.914Z,99727.09
2022-12-11T06:03:19.763Z,99730.02
2022-12-11T06:05:51.512Z,99731.34
2022-12-11T06:08:23.461Z,99731.16
2022-12-11T06:10:55.532Z,99726.52
2022-12-11T06:13:27.590Z,99738.61
2022-12-11T06:16:03.652Z,99731.80
2022-12-11T06:18:38.498Z,99730.99
2022-12-11T06:21:18.142Z,99733.16
2022-12-11T06:23:51.356Z,99734.52
2022-12-11T06:26:23.658Z,99734.09
2022-12-11T06:28:55.697Z,99728.27
2022-12-11T06:31:27.486Z,99726.05
2022-12-11T06:33:59.229Z,99724.89
2022-12-11T06:36:30.979Z,99722.22
2022-12-11T06:39:02.938Z,99727.42
2022-12-11T06:41:34.843Z,99726.48
2022-12-11T06:44:06.603Z,99727.44
2022-12-11T06:46:38.188Z,99718.92
2022-12-11T06:49:10.140Z,99716.05
2022-12-11T06:51:42.111Z,99717.45
2022-12-11T06:54:13.924Z,99718.98
2022-12-11T06:56:45.560Z,99718.91
2022-12-11T06:59:17.181Z,99718.65
2022-12-11T07:01:49.401Z,99721.17
2022-12-11T07:04:24.547Z,99722.67
2022-12-11T07:06:56.191Z,99720.64
2022-12-11T07:09:28.231Z,99714.34
2022-12-11T07:12:00.487Z,99714.77
2022-12-11T07:14:32.234Z,99712.34
2022-12-11T07:17:03.943Z,99714.34
2022-12-11T07:19:37.867Z,99721.40
2022-12-11T07:22:09.485Z,99728.53
2022-12-11T07:24:41.265Z,99732.91
2022-12-11T07:27:13.005Z,99738.65
2022-12-11T07:29:44.961Z,99745.19
2022-12-11T07:32:17.029Z,99744.38
2022-12-11T07:34:51.975Z,99743.59
2022-12-11T07:37:23.969Z,99750.92
2022-12-11T07:39:55.908Z,99752.60
2022-12-11T07:42:27.819Z,99751.00
2022-12-11T07:44:59.412Z,99743.56
2022-12-11T07:47:31.053Z,99733.66
2022-12-11T07:50:02.894Z,99733.70
2022-12-11T07:52:35.393Z,99737.33
2022-12-11T07:55:08.256Z,99743.77
2022-12-11T07:57:40.141Z,99751.17
2022-12-11T08:00:13.333Z,99759.31
2022-12-11T08:02:45.150Z,99756.65
2022-12-11T08:05:17.062Z,99755.94
2022-12-11T08:07:48.832Z,99748.32
2022-12-11T08:10:21.475Z,99744.02
2022-12-11T08:12:53.427Z,99745.41
2022-12-11T08:15:25.051Z,99748.80
2022-12-11T08:17:56.756Z,99744.96
2022-12-11T08:20:28.584Z,99744.08
2022-12-11T08:23:00.290Z,99749.73
2022-12-11T08:25:31.982Z,99751.13
2022-12-11T08:28:04.065Z,99751.08
2022-12-11T08:30:39.934Z,99742.28
2022-12-11T08:33:11.887Z,99729.48
2022-12-11T08:35:46.346Z,99717.11
2022-12-11T08:38:23.667Z,99716.96
2022-12-11T08:40:57.064Z,99707.81
2022-12-11T08:43:29.468Z,99703.95
2022-12-11T08:46:01.833Z,99706.80
2022-12-11T08:48:33.731Z,99707.81
2022-12-11T08:51:08.283Z,99711.58
2022-12-11T08:53:40.074Z,99713.66
2022-12-11T08:56:14.474Z,99716.08
2022-12-11T08:58:47.243Z,99719.18
2022-12-11T09:01:19.209Z,99728.55
2022-12-11T09:03:53.166Z,99723.34
2022-12-11T09:06:27.644Z,99728.05
2022-12-11T09:09:02.218Z,99724.40
2022-12-11T09:11:35.921Z,99723.77
2022-12-11T09:14:08.979Z,99720.66
2022-12-11T09:16:41.904Z,99715.42
2022-12-11T09:19:17.868Z,99714.77
2022-12-11T09:21:53.503Z,99715.22
2022-12-11T09:24:25.371Z,99713.38
2022-12-11T09:26:57.383Z,99703.42
2022-12-11T09:29:29.028Z,99701.54
2022-12-11T09:32:00.903Z,99700.23
2022-12-11T09:34:33.789Z,99694.58
2022-12-11T09:37:05.860Z,99689.90
2022-12-11T09:39:37.676Z,99687.30
2022-12-11T09:42:15.794Z,99690.60
2022-12-11T09:44:51.617Z,99688.59
2022-12-11T09:47:35.509Z,99688.95
2022-12-11T09:50:16.728Z,99690.49
2022-12-11T09:53:00.887Z,99684.21
2022-12-11T09:55:41.708Z,99678.42
2022-12-11T09:58:26.707Z,99679.84
2022-12-11T10:01:06.916Z,99674.95
2022-12-11T10:03:54.489Z,99677.33
2022-12-11T10:06:32.811Z,99669.26
2022-12-11T10:09:16.208Z,99670.42
2022-12-11T10:11:57.887Z,99660.79
2022-12-11T10:14:43.216Z,99654.27
2022-12-11T10:17:21.269Z,99653.21
2022-12-11T10:19:53.471Z,99650.55
2022-12-11T10:22:30.620Z,99652.66
2022-12-11T10:25:12.914Z,99650.94
2022-12-11T10:27:45.419Z,99652.39
2022-12-11T10:30:21.275Z,99650.11
2022-12-11T10:33:03.484Z,99639.45
2022-12-11T10:35:40.777Z,99634.10
2022-12-11T10:38:22.635Z,99634.21
2022-12-11T10:40:56.926Z,99635.88
2022-12-11T10:43:41.604Z,99635.95
2022-12-11T10:46:19.322Z,99630.27
2022-12-11T10:48:55.020Z,99628.34
2022-12-11T10:51:35.804Z,99626.42
2022-12-11T10:54:18.414Z,99621.27
2022-12-11T10:56:51.487Z,99615.39
2022-12-11T10:59:26.748Z,99606.41
2022-12-11T11:01:59.915Z,99605.42
2022-12-11T11:04:34.937Z,99600.36
2022-12-11T11:07:14.574Z,99598.73
2022-12-11T11:09:47.032Z,99586.46
2022-12-11T11:12:24.647Z,99582.91
2022-12-11T11:15:05.389Z,99579.68
2022-12-11T11:17:52.960Z,99570.32
2022-12-11T11:20:29.499Z,99571.55
2022-12-11T11:23:03.780Z,99566.80
2022-12-11T11:25:36.491Z,99567.00
2022-12-11T11:28:16.775Z,99565.40
2022-12-11T11:30:59.889Z,99566.85
2022-12-11T11:33:33.950Z,99569.88
2022-12-11T11:36:08.263Z,99571.95
2022-12-11T11:38:45.068Z,99569.73
2022-12-11T11:41:23.092Z,99567.29
2022-12-11T11:43:59.431Z,99562.92
2022-12-11T11:46:36.914Z,99563.83
2022-12-11T11:49:16.612Z,99568.23
2022-12-11T11:51:55.091Z,99570.90
2022-12-11T11:54:32.534Z,99568.56
2022-12-11T11:57:23.555Z,99568.18
2022-12-11T11:59:59.261Z,99561.14
2022-12-11T12:02:31.270Z,99556.73
2022-12-11T12:05:03.467Z,99551.44
2022-12-11T12:07:44.894Z,99546.09
2022-12-11T12:10:23.504Z,99543.70
2022-12-11T12:13:02.998Z,99546.88
2022-12-11T12:15:44.869Z,99545.48
2022-12-11T12:18:25.474Z,99538.94
2022-12-11T12:21:07.465Z,99538.09
2022-12-11T12:23:57.546Z,99538.06
2022-12-11T12:26:32.415Z,99535.36
2022-12-11T12:29:17.461Z,99529.02
2022-12-11T12:32:01.512Z,99527.08
2022-12-11T12:34:51.825Z,99523.35
2022-12-11T12:37:47.270Z,99518.90
2022-12-11T12:40:27.847Z,99528.32
2022-12-11T12:43:06.286Z,99522.81
2022-12-11T12:45:46.569Z,99519.58
2022-12-11T12:48:18.923Z,99517.83
2022-12-11T12:50:52.123Z,99516.77
2022-12-11T12:53:28.747Z,99513.92
2022-12-11T12:56:02.838Z,99516.05
2022-12-11T12:58:44.762Z,99510.36
2022-12-11T13:01:21.502Z,99508.73
2022-12-11T13:03:58.407Z,99507.33
2022-12-11T13:06:37.840Z,99510.00
2022-12-11T13:09:19.669Z,99508.95
2022-12-11T13:11:56.646Z,99510.73
2022-12-11T13:14:32.509Z,99512.14
2022-12-11T13:17:36.291Z,99514.25
2022-12-11T13:20:17.889Z,99513.94
2022-12-11T13:22:57.559Z,99509.48
2022-12-11T13:25:46.151Z,99509.30
2022-12-11T13:28:27.327Z,99509.48
2022-12-11T13:31:09.217Z,99509.29
2022-12-11T13:33:48.086Z,99508.21
2022-12-11T13:36:34.929Z,99502.90
2022-12-11T13:39:10.844Z,99504.84
2022-12-11T13:41:45.606Z,99504.84
2022-12-11T13:44:21.104Z,99507.33
2022-12-11T13:46:54.497Z,99506.24
2022-12-11T13:49:30.109Z,99502.34
2022-12-11T13:52:02.808Z,99497.21
2022-12-11T13:54:37.226Z,99499.52
2022-12-11T13:57:20.938Z,99502.34
2022-12-11T13:59:54.712Z,99507.65
2022-12-11T14:02:29.377Z,99502.33
2022-12-11T14:05:09.355Z,99499.34
2022-12-11T14:07:45.334Z,99495.43
2022-12-11T14:10:20.997Z,99491.16
2022-12-11T14:12:57.565Z,99492.40
2022-12-11T14:15:32.216Z,99490.45
2022-12-11T14:18:06.029Z,99495.44
2022-12-11T14:20:38.195Z,99497.19
2022-12-11T14:23:17.670Z,99499.34
2022-12-11T14:25:57.470Z,99498.98
2022-12-11T14:28:31.913Z,99502.55
2022-12-11T14:31:06.089Z,99498.45
2022-12-11T14:33:42.075Z,99497.93
2022-12-11T14:36:15.415Z,99496.32
2022-12-11T14:38:50.755Z,99496.67
2022-12-11T14:41:26.079Z,99493.30
2022-12-11T14:44:01.525Z,99494.02
2022-12-11T14:46:39.737Z,99491.35
2022-12-11T14:49:19.058Z,99490.46
2022-12-11T14:51:51.842Z,99491.89
2022-12-11T14:54:32.614Z,99494.20
2022-12-11T14:57:06.935Z,99497.75
2022-12-11T14:59:45.433Z,99495.08
2022-12-11T15:02:27.666Z,99496.50
2022-12-11T15:05:12.450Z,99494.20
2022-12-11T15:07:54.116Z,99498.81
2022-12-11T15:10:31.220Z,99500.05
2022-12-11T15:13:03.450Z,99498.27
2022-12-11T15:15:40.141Z,99496.66
2022-12-11T15:18:21.887Z,99499.34
2022-12-11T15:20:57.691Z,99499.69
2022-12-11T15:23:30.096Z,99495.77
2022-12-11T15:26:03.068Z,99496.28
2022-12-11T15:28:36.316Z,99490.26
2022-12-11T15:31:23.512Z,99493.11
2022-12-11T15:33:55.714Z,99493.64
2022-12-11T15:36:34.781Z,99490.98
2022-12-11T15:39:08.568Z,99481.54
2022-12-11T15:41:42.526Z,99487.75
2022-12-11T15:44:21.105Z,99488.83
2022-12-11T15:46:52.754Z,99488.46
2022-12-11T15:49:24.621Z,99495.74
2022-12-11T15:51:56.284Z,99490.95
2022-12-11T15:54:27.982Z,99493.96
2022-12-11T15:57:00.975Z,99489.73
2022-12-11T15:59:33.515Z,99488.47
2022-12-11T16:02:06.117Z,99489.70
2022-12-11T16:04:38.424Z,99491.14
2022-12-11T16:07:17.190Z,99490.95
2022-12-11T16:09:49.536Z,99488.09
2022-12-11T16:12:21.551Z,99489.14
2022-12-11T16:14:53.370Z,99491.45
2022-12-11T16:17:25.029Z,99487.86
2022-12-11T16:19:56.878Z,99484.30
2022-12-11T16:22:28.672Z,99484.16
2022-12-11T16:25:00.275Z,99482.36
2022-12-11T16:27:31.995Z,99482.34
2022-12-11T16:30:05.263Z,99475.05
2022-12-11T16:32:37.228Z,99471.30
2022-12-11T16:35:11.368Z,99471.51
2022-12-11T16:37:43.495Z,99467.27
2022-12-11T16:40:15.688Z,99470.27
2022-12-11T16:42:49.231Z,99471.33
2022-12-11T16:45:23.171Z,99474.68
2022-12-11T16:47:55.441Z,99475.59
2022-12-11T16:50:27.272Z,99475.58
2022-12-11T16:52:59.509Z,99476.66
2022-12-11T16:55:31.664Z,99474.54
2022-12-11T16:58:03.660Z,99473.81
2022-12-11T17:00:35.323Z,99471.49
2022-12-11T17:03:07.331Z,99471.00
2022-12-11T17:05:41.551Z,99473.31
2022-12-11T17:08:13.947Z,99475.59
2022-12-11T17:10:45.633Z,99477.18
2022-12-11T17:13:17.390Z,99478.21
2022-12-11T17:15:49.240Z,99481.05
2022-12-11T17:18:20.942Z,99480.55
2022-12-11T17:20:53.212Z,99479.51
2022-12-11T17:23:26.030Z,99473.99
2022-12-11T17:25:56.157Z,99477.55
2022-12-11T17:28:28.103Z,99473.29
2022-12-11T17:31:00.154Z,99473.13
2022-12-11T17:33:32.240Z,99478.12
2022-12-11T17:36:06.610Z,99478.10
2022-12-11T17:38:38.327Z,99471.01
2022-12-11T17:41:15.470Z,99476.70
2022-12-11T17:43:53.253Z,99477.74
2022-12-11T17:46:24.900Z,99473.51
2022-12-11T17:48:59.362Z,99475.83
2022-12-11T17:51:31.179Z,99475.66
2022-12-11T17:54:03.058Z,99484.34
2022-12-11T17:56:36.205Z,99484.35
2022-12-11T17:59:07.936Z,99487.02
2022-12-11T18:01:39.632Z,99485.94
2022-12-11T18:04:11.864Z,99493.73
2022-12-11T18:06:43.887Z,99492.31
2022-12-11T18:09:15.588Z,99495.14
2022-12-11T18:11:47.481Z,99495.52
2022-12-11T18:14:19.192Z,99493.71
2022-12-11T18:16:52.484Z,99495.86
2022-12-11T18:19:26.831Z,99492.87
2022-12-11T18:21:59.345Z,99490.38
2022-12-11T18:24:31.859Z,99491.23
2022-12-11T18:27:04.220Z,99492.13
2022-12-11T18:29:36.143Z,99494.61
2022-12-11T18:32:08.063Z,99493.94
2022-12-11T18:34:39.905Z,99493.78
2022-12-11T18:37:12.024Z,99491.27
2022-12-11T18:39:43.712Z,99490.91
2022-12-11T18:45:08.571Z,99487.02
2022-12-11T18:47:40.328Z,99489.32
2022-12-11T18:50:12.065Z,99488.28
2022-12-11T18:52:43.880Z,99486.48
2022-12-11T18:55:16.092Z,99488.77
2022-12-11T18:57:48.033Z,99487.52
2022-12-11T19:00:22.227Z,99485.92
2022-12-11T19:02:54.084Z,99486.84
2022-12-11T19:05:26.667Z,99482.94
2022-12-11T19:07:58.783Z,99480.44
2022-12-11T19:10:30.818Z,99482.91
2022-12-11T19:13:03.067Z,99483.80
2022-12-11T19:15:38.323Z,99481.33
2022-12-11T19:18:10.971Z,99485.23
2022-12-11T19:20:57.674Z,99486.64
2022-12-11T19:23:35.406Z,99483.27
2022-12-11T19:26:10.474Z,99484.52
2022-12-11T19:28:42.269Z,99481.34
2022-12-11T19:31:16.285Z,99480.27
2022-12-11T19:33:48.736Z,99479.73
2022-12-11T19:36:23.460Z,99478.31
2022-12-11T19:39:01.376Z,99486.99
2022-12-11T19:41:34.748Z,99483.47
2022-12-11T19:44:07.816Z,99482.05
2022-12-11T19:46:40.617Z,99486.15
2022-12-11T19:49:11.486Z,99485.79
2022-12-11T19:51:44.876Z,99487.73
2022-12-11T19:54:18.902Z,99487.38
2022-12-11T19:56:51.633Z,99484.73
2022-12-11T19:59:23.600Z,99486.67
2022-12-11T20:01:55.842Z,99482.55
2022-12-11T20:04:29.514Z,99480.42
2022-12-11T20:07:01.760Z,99485.95
2022-12-11T20:09:35.135Z,99482.02
2022-12-11T20:12:10.497Z,99480.77
2022-12-11T20:14:42.785Z,99481.11
2022-12-11T20:17:15.406Z,99483.22
2022-12-11T20:19:48.503Z,99481.29
2022-12-11T20:22:22.824Z,99479.70
2022-12-11T20:24:55.235Z,99477.92
2022-12-11T20:27:28.472Z,99476.67
2022-12-11T20:29:59.071Z,99472.77
2022-12-11T20:32:31.991Z,99472.94
2022-12-11T20:35:04.008Z,99466.21
2022-12-11T20:37:37.414Z,99464.95
2022-12-11T20:40:11.696Z,99462.48
2022-12-11T20:42:43.580Z,99466.41
2022-12-11T20:45:16.034Z,99463.19
2022-12-11T20:47:50.732Z,99464.07
2022-12-11T20:50:23.219Z,99462.47
2022-12-11T20:52:54.097Z,99456.42
2022-12-11T20:55:26.669Z,99459.55
2022-12-11T20:58:00.463Z,99452.61
2022-12-11T21:00:33.015Z,99452.11
2022-12-11T21:03:05.583Z,99452.49
2022-12-11T21:05:44.725Z,99451.09
2022-12-11T21:08:18.490Z,99450.73
2022-12-11T21:10:52.307Z,99447.68
2022-12-11T21:13:24.676Z,99446.48
2022-12-11T21:15:56.806Z,99449.45
2022-12-11T21:18:29.676Z,99447.52
2022-12-11T21:21:03.566Z,99449.66
2022-12-11T21:23:37.684Z,99446.65
2022-12-11T21:26:12.073Z,99452.33
2022-12-11T21:28:45.237Z,99455.52
2022-12-11T21:31:20.224Z,99451.07
2022-12-11T21:33:52.564Z,99456.59
2022-12-11T21:36:25.464Z,99448.77
2022-12-11T21:38:59.553Z,99455.00
2022-12-11T21:41:33.031Z,99457.83
2022-12-11T21:46:59.038Z,99455.89
2022-12-11T21:49:31.798Z,99455.91
2022-12-11T21:52:03.492Z,99456.08
2022-12-11T21:54:35.422Z,99452.34
2022-12-11T21:57:08.199Z,99457.13
2022-12-11T21:59:40.975Z,99458.34
2022-12-11T22:02:13.393Z,99457.27
2022-12-11T22:04:47.420Z,99457.09
2022-12-11T22:07:20.613Z,99453.84
2022-12-11T22:09:52.464Z,99448.33
2022-12-11T22:12:27.957Z,99453.35
2022-12-11T22:14:59.659Z,99451.04
2022-12-11T22:17:32.140Z,99450.87
2022-12-11T22:20:04.192Z,99451.35
2022-12-11T22:22:36.061Z,99453.83
2022-12-11T22:25:10.253Z,99451.95
2022-12-11T22:27:42.733Z,99449.31
2022-12-11T22:30:15.498Z,99448.08
2022-12-11T22:32:47.267Z,99443.44
2022-12-11T22:35:21.853Z,99445.52
2022-12-11T22:37:55.952Z,99441.92
2022-12-11T22:40:27.869Z,99447.23
2022-12-11T22:42:59.920Z,99446.49
2022-12-11T22:45:31.533Z,99449.30
2022-12-11T22:48:03.384Z,99448.32
2022-12-11T22:50:35.302Z,99449.52
2022-12-11T22:53:07.418Z,99447.81
2022-12-11T22:55:41.600Z,99447.58
2022-12-11T22:58:16.115Z,99443.52
2022-12-11T23:00:52.222Z,99448.81
2022-12-11T23:03:24.042Z,99449.00
2022-12-11T23:05:56.082Z,99448.61
2022-12-11T23:08:28.328Z,99446.38
2022-12-11T23:11:00.425Z,99449.15
2022-12-11T23:13:32.971Z,99450.41
2022-12-11T23:16:04.892Z,99453.09
2022-12-11T23:18:36.627Z,99447.82
2022-12-11T23:21:12.534Z,99446.46
2022-12-11T23:23:44.531Z,99447.56
2022-12-11T23:26:18.540Z,99449.70
2022-12-11T23:28:50.839Z,99449.59
2022-12-11T23:31:22.848Z,99453.13
2022-12-11T23:33:55.396Z,99449.39
2022-12-11T23:36:28.154Z,99444.76
2022-12-11T23:38:59.921Z,99443.95
2022-12-11T23:41:31.917Z,99444.98
2022-12-11T23:44:04.546Z,99441.45
2022-12-11T23:46:36.349Z,99441.92
2022-12-11T23:49:08.347Z,99443.36
2022-12-11T23:51:40.339Z,99444.11
2022-12-11T23:54:12.345Z,99445.81
2022-12-11T23:56:44.008Z,99445.64
2022-12-11T23:59:16.869Z,99443.20
